createdAt,value
2022-09-09T00:01:43.161Z,99569.91
2022-09-09T00:04:21.666Z,99576.22
2022-09-09T00:07:00.904Z,99568.69
2022-09-09T00:09:29.941Z,99565.84
2022-09-09T00:12:05.982Z,99565.44
2022-09-09T00:14:40.137Z,99574.28
2022-09-09T00:17:26.266Z,99583.78
2022-09-09T00:20:05.632Z,99590.94
2022-09-09T00:22:33.283Z,99591.53
2022-09-09T00:25:13.970Z,99579.22
2022-09-09T00:27:49.752Z,99572.56
2022-09-09T00:30:33.159Z,99579.25
2022-09-09T00:33:03.765Z,99590.22
2022-09-09T00:35:37.926Z,99580.19
2022-09-09T00:38:14.917Z,99579.53
2022-09-09T00:40:50.816Z,99582.19
2022-09-09T00:43:32.219Z,99588.44
2022-09-09T00:46:11.613Z,99589.50
2022-09-09T00:49:16.769Z,99575.00
2022-09-09T00:51:51.269Z,99580.66
2022-09-09T00:54:49.994Z,99578.16
2022-09-09T00:57:30.245Z,99585.66
2022-09-09T01:00:19.981Z,99587.41
2022-09-09T01:03:13.912Z,99589.69
2022-09-09T01:05:51.845Z,99593.25
2022-09-09T01:08:51.127Z,99591.59
2022-09-09T01:11:38.591Z,99602.66
2022-09-09T01:14:15.283Z,99600.84
2022-09-09T01:16:43.315Z,99603.84
2022-09-09T01:19:18.189Z,99607.19
2022-09-09T01:22:00.280Z,99606.69
2022-09-09T01:24:40.638Z,99617.97
2022-09-09T01:27:10.482Z,99625.44
2022-09-09T01:29:38.858Z,99621.28
2022-09-09T01:32:44.510Z,99621.00
2022-09-09T01:35:19.888Z,99626.34
2022-09-09T01:37:47.382Z,99623.47
2022-09-09T01:40:15.118Z,99623.47
2022-09-09T01:42:42.647Z,99631.06
2022-09-09T01:45:10.459Z,99632.94
2022-09-09T01:47:38.176Z,99632.69
2022-09-09T01:50:08.810Z,99639.28
2022-09-09T01:52:37.296Z,99640.88
2022-09-09T01:55:06.605Z,99638.91
2022-09-09T01:57:44.581Z,99635.72
2022-09-09T02:00:14.110Z,99636.84
2022-09-09T02:03:02.489Z,99630.97
2022-09-09T02:05:40.610Z,99628.97
2022-09-09T02:08:11.986Z,99626.56
2022-09-09T02:11:08.125Z,99622.97
2022-09-09T02:13:37.930Z,99624.09
2022-09-09T02:16:15.547Z,99621.03
2022-09-09T02:18:51.283Z,99631.38
2022-09-09T02:21:20.524Z,99638.00
2022-09-09T02:23:48.984Z,99631.88
2022-09-09T02:26:21.205Z,99630.56
2022-09-09T02:28:51.294Z,99620.91
2022-09-09T02:31:21.286Z,99620.34
2022-09-09T02:33:53.772Z,99613.31
2022-09-09T02:36:31.172Z,99617.56
2022-09-09T02:38:58.715Z,99611.53
2022-09-09T02:41:38.131Z,99608.44
2022-09-09T02:44:14.913Z,99613.81
2022-09-09T02:46:54.949Z,99617.59
2022-09-09T02:49:33.799Z,99614.03
2022-09-09T02:52:16.385Z,99616.59
2022-09-09T02:54:44.371Z,99627.25
2022-09-09T02:57:24.828Z,99628.47
2022-09-09T02:59:53.256Z,99628.16
2022-09-09T03:02:20.975Z,99630.66
2022-09-09T03:04:52.668Z,99629.09
2022-09-09T03:07:20.810Z,99637.75
2022-09-09T03:09:49.099Z,99630.75
2022-09-09T03:12:17.266Z,99636.63
2022-09-09T03:14:46.852Z,99633.66
2022-09-09T03:17:14.752Z,99635.34
2022-09-09T03:19:44.996Z,99633.13
2022-09-09T03:22:14.236Z,99642.50
2022-09-09T03:24:42.571Z,99637.34
2022-09-09T03:27:10.307Z,99637.09
2022-09-09T03:29:37.900Z,99634.03
2022-09-09T03:32:05.865Z,99632.72
2022-09-09T03:34:33.385Z,99640.63
2022-09-09T03:37:00.955Z,99630.66
2022-09-09T03:39:30.043Z,99634.84
2022-09-09T03:41:59.839Z,99630.88
2022-09-09T03:44:27.180Z,99642.75
2022-09-09T03:46:55.724Z,99639.66
2022-09-09T03:49:24.222Z,99650.56
2022-09-09T03:51:51.572Z,99659.47
2022-09-09T03:54:19.193Z,99652.47
2022-09-09T03:56:46.587Z,99656.03
2022-09-09T03:59:15.333Z,99650.56
2022-09-09T04:01:43.653Z,99665.28
2022-09-09T04:04:13.016Z,99655.97
2022-09-09T04:06:40.419Z,99659.16
2022-09-09T04:09:08.027Z,99655.97
2022-09-09T04:11:35.916Z,99655.19
2022-09-09T04:14:03.472Z,99652.25
2022-09-09T04:16:31.179Z,99657.81
2022-09-09T04:19:00.616Z,99666.16
2022-09-09T04:21:28.006Z,99654.50
2022-09-09T04:23:55.658Z,99648.84
2022-09-09T04:26:23.830Z,99651.94
2022-09-09T04:28:51.414Z,99645.81
2022-09-09T04:31:22.460Z,99652.38
2022-09-09T04:33:53.636Z,99648.06
2022-09-09T04:36:22.111Z,99653.13
2022-09-09T04:38:50.216Z,99649.75
2022-09-09T04:41:18.077Z,99641.13
2022-09-09T04:43:46.037Z,99635.87
2022-09-09T04:46:14.384Z,99636.44
2022-09-09T04:48:41.784Z,99634.78
2022-09-09T04:51:12.912Z,99646.03
2022-09-09T04:53:41.353Z,99646.31
2022-09-09T04:56:11.189Z,99644.25
2022-09-09T04:58:39.796Z,99647.31
2022-09-09T05:01:12.127Z,99642.56
2022-09-09T05:03:39.981Z,99653.69
2022-09-09T05:06:10.630Z,99657.28
2022-09-09T05:08:38.981Z,99653.97
2022-09-09T05:11:16.466Z,99655.50
2022-09-09T05:13:45.090Z,99650.22
2022-09-09T05:16:13.814Z,99654.50
2022-09-09T05:18:41.644Z,99662.88
2022-09-09T05:21:10.267Z,99659.00
2022-09-09T05:23:38.519Z,99660.25
2022-09-09T05:26:07.430Z,99652.41
2022-09-09T05:28:36.348Z,99657.09
2022-09-09T05:31:06.337Z,99667.66
2022-09-09T05:33:34.227Z,99671.88
2022-09-09T05:36:05.165Z,99671.75
2022-09-09T05:38:36.491Z,99678.94
2022-09-09T05:41:04.526Z,99678.81
2022-09-09T05:43:33.352Z,99683.94
2022-09-09T05:46:08.893Z,99677.56
2022-09-09T05:48:41.281Z,99687.28
2022-09-09T05:51:13.532Z,99682.91
2022-09-09T05:53:41.171Z,99680.31
2022-09-09T05:56:15.151Z,99676.38
2022-09-09T05:59:07.076Z,99671.81
2022-09-09T06:01:36.344Z,99666.88
2022-09-09T06:04:04.751Z,99672.94
2022-09-09T06:06:37.409Z,99670.16
2022-09-09T06:09:07.673Z,99667.31
2022-09-09T06:11:37.034Z,99662.91
2022-09-09T06:14:05.099Z,99660.16
2022-09-09T06:16:35.746Z,99667.53
2022-09-09T06:19:06.919Z,99667.16
2022-09-09T06:21:39.461Z,99667.16
2022-09-09T06:24:08.281Z,99668.72
2022-09-09T06:26:37.632Z,99670.63
2022-09-09T06:29:06.003Z,99674.16
2022-09-09T06:31:35.461Z,99681.28
2022-09-09T06:34:08.444Z,99675.06
2022-09-09T06:36:37.909Z,99673.41
2022-09-09T06:39:12.169Z,99671.25
2022-09-09T06:41:43.348Z,99668.78
2022-09-09T06:44:14.432Z,99665.63
2022-09-09T06:46:42.383Z,99678.97
2022-09-09T06:49:10.597Z,99679.84
2022-09-09T06:51:43.966Z,99684.78
2022-09-09T06:54:12.810Z,99678.31
2022-09-09T06:56:43.926Z,99684.53
2022-09-09T06:59:13.020Z,99688.72
2022-09-09T07:01:43.008Z,99690.88
2022-09-09T07:04:12.001Z,99692.97
2022-09-09T07:06:44.065Z,99689.84
2022-09-09T07:09:14.214Z,99698.59
2022-09-09T07:11:50.019Z,99697.13
2022-09-09T07:14:17.776Z,99688.37
2022-09-09T07:16:47.026Z,99690.47
2022-09-09T07:19:15.575Z,99694.88
2022-09-09T07:21:43.891Z,99695.87
2022-09-09T07:24:11.849Z,99693.84
2022-09-09T07:26:40.987Z,99689.91
2022-09-09T07:29:09.222Z,99687.56
2022-09-09T07:31:38.867Z,99691.75
2022-09-09T07:34:06.914Z,99705.25
2022-09-09T07:36:38.807Z,99691.34
2022-09-09T07:39:14.551Z,99701.16
2022-09-09T07:41:47.867Z,99708.34
2022-09-09T07:44:18.438Z,99704.88
2022-09-09T07:46:46.902Z,99704.91
2022-09-09T07:49:15.634Z,99705.78
2022-09-09T07:51:46.195Z,99703.87
2022-09-09T07:54:16.101Z,99704.00
2022-09-09T07:56:45.147Z,99706.22
2022-09-09T07:59:13.344Z,99703.63
2022-09-09T08:01:44.155Z,99698.69
2022-09-09T08:04:18.095Z,99702.41
2022-09-09T08:06:48.591Z,99707.47
2022-09-09T08:09:17.119Z,99691.88
2022-09-09T08:11:45.122Z,99694.94
2022-09-09T08:14:13.362Z,99699.53
2022-09-09T08:16:45.507Z,99704.25
2022-09-09T08:19:15.216Z,99696.41
2022-09-09T08:21:44.461Z,99698.31
2022-09-09T08:24:13.430Z,99688.03
2022-09-09T08:26:43.134Z,99690.38
2022-09-09T08:29:12.810Z,99689.63
2022-09-09T08:31:45.451Z,99691.44
2022-09-09T08:34:13.264Z,99686.22
2022-09-09T08:36:43.410Z,99696.19
2022-09-09T08:39:13.132Z,99697.47
2022-09-09T08:42:14.827Z,99696.41
2022-09-09T08:45:16.053Z,99695.72
2022-09-09T08:48:16.560Z,99702.19
2022-09-09T08:50:44.323Z,99696.06
2022-09-09T08:53:25.930Z,99693.34
2022-09-09T08:56:08.251Z,99695.09
2022-09-09T08:58:47.611Z,99700.03
2022-09-09T09:01:47.307Z,99697.06
2022-09-09T09:04:39.651Z,99702.84
2022-09-09T09:07:22.735Z,99699.31
2022-09-09T09:10:39.850Z,99694.16
2022-09-09T09:13:05.012Z,99694.38
2022-09-09T09:15:37.663Z,99690.56
2022-09-09T09:18:06.235Z,99697.56
2022-09-09T09:20:54.837Z,99686.34
2022-09-09T09:23:24.818Z,99679.06
2022-09-09T09:26:00.838Z,99680.69
2022-09-09T09:28:31.374Z,99680.63
2022-09-09T09:31:07.695Z,99669.12
2022-09-09T09:33:45.532Z,99659.28
2022-09-09T09:36:16.199Z,99671.16
2022-09-09T09:41:46.691Z,99667.72
2022-09-09T09:44:32.788Z,99662.28
2022-09-09T09:47:11.762Z,99671.69
2022-09-09T09:49:39.198Z,99677.44
2022-09-09T09:52:08.650Z,99673.06
2022-09-09T09:54:43.017Z,99677.75
2022-09-09T09:57:12.583Z,99680.75
2022-09-09T09:59:41.035Z,99677.25
2022-09-09T10:02:17.800Z,99680.31
2022-09-09T10:04:46.394Z,99669.53
2022-09-09T10:07:19.377Z,99661.09
2022-09-09T10:09:51.440Z,99670.38
2022-09-09T10:12:27.151Z,99664.56
2022-09-09T10:15:09.218Z,99663.91
2022-09-09T10:18:14.000Z,99659.59
2022-09-09T10:21:03.762Z,99658.72
2022-09-09T10:23:42.840Z,99662.59
2022-09-09T10:26:17.236Z,99663.19
2022-09-09T10:29:02.684Z,99664.44
2022-09-09T10:32:00.145Z,99663.97
2022-09-09T10:35:03.052Z,99665.00
2022-09-09T10:37:37.756Z,99661.91
2022-09-09T10:40:33.740Z,99656.22
2022-09-09T10:43:40.803Z,99662.34
2022-09-09T10:46:29.771Z,99650.91
2022-09-09T10:49:28.546Z,99656.16
2022-09-09T10:52:20.697Z,99652.75
2022-09-09T10:55:08.207Z,99650.72
2022-09-09T10:57:52.234Z,99649.63
2022-09-09T11:00:22.090Z,99658.34
2022-09-09T11:03:03.011Z,99642.59
2022-09-09T11:05:50.535Z,99649.81
2022-09-09T11:11:12.914Z,99642.53
2022-09-09T11:13:52.562Z,99640.13
2022-09-09T11:16:29.345Z,99630.78
2022-09-09T11:19:03.424Z,99628.22
2022-09-09T11:21:37.359Z,99624.81
2022-09-09T11:24:11.715Z,99637.22
2022-09-09T11:26:46.190Z,99638.91
2022-09-09T11:29:45.004Z,99645.47
2022-09-09T11:32:48.976Z,99639.06
2022-09-09T11:35:36.957Z,99642.28
2022-09-09T11:38:10.505Z,99660.94
2022-09-09T11:40:38.039Z,99649.44
2022-09-09T11:43:13.601Z,99642.94
2022-09-09T11:45:44.528Z,99635.25
2022-09-09T11:48:33.499Z,99639.16
2022-09-09T11:51:16.867Z,99647.25
2022-09-09T11:53:50.919Z,99635.78
2022-09-09T11:56:35.623Z,99638.13
2022-09-09T11:59:04.493Z,99638.56
2022-09-09T12:01:38.694Z,99632.78
2022-09-09T12:04:06.193Z,99632.31
2022-09-09T12:06:42.643Z,99635.13
2022-09-09T12:09:20.937Z,99638.03
2022-09-09T12:11:48.239Z,99654.03
2022-09-09T12:14:42.061Z,99657.06
2022-09-09T12:17:16.556Z,99657.34
2022-09-09T12:19:44.157Z,99649.09
2022-09-09T12:22:39.402Z,99638.22
2022-09-09T12:25:20.182Z,99650.37
2022-09-09T12:28:12.160Z,99638.03
2022-09-09T12:30:49.895Z,99627.56
2022-09-09T12:33:20.031Z,99617.53
2022-09-09T12:35:54.315Z,99622.09
2022-09-09T12:38:34.053Z,99612.50
2022-09-09T12:41:01.620Z,99614.06
2022-09-09T12:43:29.742Z,99610.38
2022-09-09T12:46:09.911Z,99602.50
2022-09-09T12:48:40.153Z,99606.53
2022-09-09T12:51:18.671Z,99605.37
2022-09-09T12:53:47.039Z,99601.91
2022-09-09T12:56:22.634Z,99605.00
2022-09-09T12:58:52.566Z,99592.25
2022-09-09T13:01:23.865Z,99582.63
2022-09-09T13:03:51.722Z,99581.37
2022-09-09T13:06:28.909Z,99570.84
2022-09-09T13:09:00.007Z,99565.53
2022-09-09T13:11:47.736Z,99568.91
2022-09-09T13:14:21.281Z,99562.84
2022-09-09T13:16:59.743Z,99560.16
2022-09-09T13:19:30.574Z,99556.31
2022-09-09T13:21:58.293Z,99560.28
2022-09-09T13:24:34.782Z,99558.28
2022-09-09T13:27:35.669Z,99562.81
2022-09-09T13:30:20.093Z,99568.78
2022-09-09T13:32:47.926Z,99560.72
2022-09-09T13:35:34.753Z,99553.81
2022-09-09T13:38:10.507Z,99550.97
2022-09-09T13:40:38.810Z,99560.69
2022-09-09T13:43:06.507Z,99541.97
2022-09-09T13:45:35.203Z,99541.03
2022-09-09T13:48:10.450Z,99540.69
2022-09-09T13:50:38.467Z,99539.94
2022-09-09T13:53:05.939Z,99530.88
2022-09-09T13:55:33.501Z,99521.63
2022-09-09T13:58:02.989Z,99527.44
2022-09-09T14:00:32.160Z,99519.91
2022-09-09T14:03:03.028Z,99516.03
2022-09-09T14:05:32.872Z,99513.13
2022-09-09T14:08:01.641Z,99513.69
2022-09-09T14:10:29.012Z,99506.50
2022-09-09T14:12:57.016Z,99506.00
2022-09-09T14:15:24.750Z,99502.56
2022-09-09T14:17:53.164Z,99493.09
2022-09-09T14:20:20.485Z,99502.34
2022-09-09T14:22:48.149Z,99500.47
2022-09-09T14:25:15.720Z,99504.28
2022-09-09T14:27:43.404Z,99506.97
2022-09-09T14:30:11.575Z,99508.84
2022-09-09T14:32:38.899Z,99502.28
2022-09-09T14:35:06.377Z,99492.88
2022-09-09T14:37:33.967Z,99499.81
2022-09-09T14:40:01.418Z,99500.88
2022-09-09T14:42:30.362Z,99488.25
2022-09-09T14:44:58.007Z,99490.78
2022-09-09T14:47:25.326Z,99491.37
2022-09-09T14:49:52.784Z,99496.84
2022-09-09T14:52:20.768Z,99490.50
2022-09-09T14:54:48.109Z,99496.25
2022-09-09T14:57:15.400Z,99499.03
2022-09-09T14:59:42.974Z,99497.47
2022-09-09T15:02:10.423Z,99493.81
2022-09-09T15:04:37.866Z,99489.19
2022-09-09T15:07:05.435Z,99496.47
2022-09-09T15:09:35.091Z,99498.16
2022-09-09T15:12:03.792Z,99489.31
2022-09-09T15:14:31.761Z,99491.13
2022-09-09T15:16:59.040Z,99489.34
2022-09-09T15:19:26.327Z,99486.16
2022-09-09T15:21:53.892Z,99495.78
2022-09-09T15:24:21.275Z,99491.16
2022-09-09T15:26:48.843Z,99492.22
2022-09-09T15:29:16.836Z,99498.81
2022-09-09T15:31:44.134Z,99495.53
2022-09-09T15:34:11.446Z,99496.88
2022-09-09T15:36:41.208Z,99495.69
2022-09-09T15:39:13.386Z,99492.88
2022-09-09T15:41:41.183Z,99502.06
2022-09-09T15:44:09.022Z,99502.66
2022-09-09T15:46:47.387Z,99493.44
2022-09-09T15:49:23.122Z,99500.13
2022-09-09T15:51:58.567Z,99487.47
2022-09-09T15:54:27.169Z,99487.34
2022-09-09T15:56:57.025Z,99496.91
2022-09-09T15:59:25.625Z,99492.94
2022-09-09T16:01:53.316Z,99491.53
2022-09-09T16:04:24.384Z,99503.03
2022-09-09T16:06:53.040Z,99506.78
2022-09-09T16:09:20.714Z,99512.41
2022-09-09T16:11:48.548Z,99518.47
2022-09-09T16:14:16.729Z,99523.94
2022-09-09T16:16:44.333Z,99526.72
2022-09-09T16:19:13.443Z,99518.69
2022-09-09T16:21:43.651Z,99519.69
2022-09-09T16:24:13.374Z,99518.31
2022-09-09T16:26:44.795Z,99516.44
2022-09-09T16:29:13.910Z,99516.25
2022-09-09T16:31:41.883Z,99517.81
2022-09-09T16:34:10.280Z,99519.75
2022-09-09T16:36:40.006Z,99513.03
2022-09-09T16:39:10.228Z,99515.09
2022-09-09T16:41:39.057Z,99510.81
2022-09-09T16:44:08.535Z,99515.72
2022-09-09T16:46:41.574Z,99514.91
2022-09-09T16:49:11.546Z,99517.16
